createdAt,value
2022-08-04T00:02:33.085Z,2.95
2022-08-04T00:07:45.007Z,5.78
2022-08-04T00:12:45.811Z,6.45
2022-08-04T00:17:47.773Z,5.10
2022-08-04T00:22:48.088Z,4.18
2022-08-04T00:27:42.835Z,3.63
2022-08-04T00:32:36.439Z,4.55
2022-08-04T00:37:30.329Z,4.32
2022-08-04T00:42:58.327Z,5.00
2022-08-04T00:48:10.611Z,5.72
2022-08-04T00:53:10.260Z,5.37
2022-08-04T00:58:54.107Z,9.40
2022-08-04T01:03:57.038Z,6.93
2022-08-04T01:09:32.456Z,9.88
2022-08-04T01:14:51.604Z,4.40
2022-08-04T01:20:08.274Z,12.25
2022-08-04T01:25:35.724Z,5.32
2022-08-04T01:30:34.806Z,7.72
2022-08-04T01:35:47.394Z,5.10
2022-08-04T01:40:46.454Z,4.22
2022-08-04T01:45:39.540Z,5.93
2022-08-04T01:50:40.179Z,3.30
2022-08-04T01:55:55.320Z,4.00
2022-08-04T02:00:57.911Z,4.40
2022-08-04T02:06:03.226Z,9.40
2022-08-04T02:11:22.795Z,5.15
2022-08-04T02:16:54.586Z,4.78
2022-08-04T02:21:53.316Z,4.70
2022-08-04T02:26:50.849Z,4.15
2022-08-04T02:31:58.760Z,4.25
2022-08-04T02:36:52.651Z,5.95
2022-08-04T02:41:48.092Z,4.80
2022-08-04T02:46:43.743Z,7.05
2022-08-04T02:51:39.833Z,4.47
2022-08-04T02:56:35.280Z,7.60
2022-08-04T03:01:31.855Z,7.00
2022-08-04T03:07:08.243Z,4.97
2022-08-04T03:12:58.893Z,4.65
2022-08-04T03:18:14.699Z,2.65
2022-08-04T03:23:14.389Z,4.45
2022-08-04T03:28:53.659Z,7.15
2022-08-04T03:34:23.826Z,5.25
2022-08-04T03:39:34.351Z,5.53
2022-08-04T03:44:49.103Z,7.47
2022-08-04T03:50:23.993Z,7.65
2022-08-04T03:55:45.237Z,5.65
2022-08-04T04:00:48.725Z,6.32
2022-08-04T04:06:10.881Z,7.68
2022-08-04T04:11:35.254Z,5.63
2022-08-04T04:17:29.814Z,8.13
2022-08-04T04:22:55.607Z,4.68
2022-08-04T04:28:45.653Z,7.10
2022-08-04T04:33:39.283Z,4.47
2022-08-04T04:38:53.335Z,6.82
2022-08-04T04:43:58.623Z,6.38
2022-08-04T04:49:23.862Z,5.40
2022-08-04T04:54:40.853Z,10.75
2022-08-04T04:59:37.675Z,4.18
2022-08-04T05:05:01.267Z,3.85
2022-08-04T05:10:00.442Z,7.57
2022-08-04T05:14:55.993Z,4.60
2022-08-04T05:19:48.828Z,5.82
2022-08-04T05:24:45.075Z,9.93
2022-08-04T05:29:41.297Z,29.17
2022-08-04T05:34:44.388Z,19.52
2022-08-04T05:39:53.696Z,16.17
2022-08-04T05:44:50.941Z,19.45
2022-08-04T05:50:01.426Z,17.20
2022-08-04T05:54:56.913Z,14.30
2022-08-04T05:59:53.105Z,7.82
2022-08-04T06:04:48.506Z,8.15
2022-08-04T06:09:42.136Z,6.95
2022-08-04T06:15:04.696Z,12.25
2022-08-04T06:20:20.338Z,17.23
2022-08-04T06:25:13.972Z,15.07
2022-08-04T06:30:14.418Z,11.60
2022-08-04T06:35:11.584Z,8.90
2022-08-04T06:40:31.257Z,12.50
2022-08-04T06:45:21.948Z,14.50
2022-08-04T06:51:24.572Z,5.63
2022-08-04T06:55:29.621Z,10.50
2022-08-04T07:00:24.376Z,13.48
2022-08-04T07:05:20.511Z,19.08
2022-08-04T07:10:21.635Z,10.85
2022-08-04T07:15:18.710Z,5.33
2022-08-04T07:20:13.700Z,4.13
2022-08-04T07:25:12.835Z,6.85
2022-08-04T07:30:08.259Z,8.15
2022-08-04T07:35:03.007Z,4.90
2022-08-04T07:39:56.911Z,5.18
2022-08-04T07:44:51.788Z,15.98
2022-08-04T07:49:55.614Z,16.05
2022-08-04T07:54:52.376Z,12.63
2022-08-04T07:59:49.964Z,11.38
2022-08-04T08:04:45.206Z,12.65
2022-08-04T08:09:39.706Z,11.15
2022-08-04T08:14:35.405Z,11.13
2022-08-04T08:19:30.931Z,11.77
2022-08-04T08:24:24.211Z,9.18
2022-08-04T08:29:18.164Z,11.57
2022-08-04T08:34:12.693Z,13.82
2022-08-04T08:39:30.069Z,8.85
2022-08-04T08:45:06.586Z,12.07
2022-08-04T08:50:21.819Z,7.80
2022-08-04T08:55:21.017Z,4.10
2022-08-04T09:00:19.344Z,7.55
2022-08-04T09:05:34.296Z,5.18
2022-08-04T09:10:34.895Z,7.95
2022-08-04T09:15:37.527Z,3.87
2022-08-04T09:20:57.112Z,7.53
2022-08-04T09:26:18.896Z,2.90
2022-08-04T09:31:19.093Z,5.80
2022-08-04T09:36:29.454Z,4.68
2022-08-04T09:41:48.469Z,8.23
2022-08-04T09:47:20.055Z,5.65
2022-08-04T09:57:27.860Z,8.35
2022-08-04T10:02:23.722Z,5.45
2022-08-04T10:07:40.149Z,6.80
2022-08-04T10:12:45.369Z,2.83
2022-08-04T10:17:43.594Z,3.95
2022-08-04T10:23:11.130Z,6.50
2022-08-04T10:28:10.502Z,5.15
2022-08-04T10:33:18.490Z,6.57
2022-08-04T10:38:34.107Z,3.37
2022-08-04T10:44:05.401Z,4.45
2022-08-04T10:49:14.069Z,4.32
2022-08-04T10:54:12.308Z,1.88
2022-08-04T10:59:19.059Z,6.17
2022-08-04T11:04:37.267Z,4.70
2022-08-04T11:09:31.561Z,4.75
2022-08-04T11:14:30.325Z,9.25
2022-08-04T11:19:49.911Z,2.00
2022-08-04T11:25:07.563Z,2.63
2022-08-04T11:30:09.501Z,6.00
2022-08-04T11:35:13.464Z,5.88
2022-08-04T11:40:22.841Z,7.85
2022-08-04T11:45:26.297Z,4.60
2022-08-04T11:50:23.508Z,3.08
2022-08-04T11:55:17.741Z,3.92
2022-08-04T12:00:17.676Z,4.15
2022-08-04T12:05:23.434Z,4.35
2022-08-04T12:10:46.964Z,4.40
2022-08-04T12:15:59.348Z,1.92
2022-08-04T12:21:01.977Z,5.05
2022-08-04T12:25:59.957Z,4.28
2022-08-04T12:31:04.362Z,4.20
2022-08-04T12:36:22.972Z,4.63
2022-08-04T12:41:20.895Z,2.25
2022-08-04T12:51:30.957Z,2.70
2022-08-04T12:56:29.149Z,6.47
2022-08-04T13:02:08.645Z,4.03
2022-08-04T13:06:37.912Z,1.58
2022-08-04T13:11:32.531Z,4.10
2022-08-04T13:16:34.777Z,7.85
2022-08-04T13:22:02.225Z,2.97
2022-08-04T13:26:57.874Z,2.03
2022-08-04T13:31:56.954Z,5.25
2022-08-04T13:36:51.134Z,3.90
2022-08-04T13:41:47.773Z,3.42
2022-08-04T13:47:15.590Z,4.80
2022-08-04T13:52:11.187Z,2.90
2022-08-04T13:57:09.529Z,1.67
2022-08-04T14:02:16.603Z,3.10
2022-08-04T14:07:21.221Z,3.45
2022-08-04T14:12:46.374Z,2.15
2022-08-04T14:17:31.846Z,4.53
2022-08-04T14:22:27.684Z,2.45
2022-08-04T14:27:22.049Z,2.95
2022-08-04T14:32:15.454Z,3.25
2022-08-04T14:37:19.686Z,1.58
2022-08-04T14:42:14.514Z,4.82
2022-08-04T14:47:13.247Z,5.18
2022-08-04T14:52:06.963Z,2.20
2022-08-04T14:57:05.935Z,2.65
2022-08-04T15:02:00.843Z,4.87
2022-08-04T15:06:55.701Z,1.75
2022-08-04T15:11:50.067Z,5.68
2022-08-04T15:16:54.419Z,2.55
2022-08-04T15:21:48.241Z,2.67
2022-08-04T15:26:45.882Z,1.85
2022-08-04T15:32:05.632Z,2.33
2022-08-04T15:37:01.776Z,3.35
2022-08-04T15:42:21.245Z,2.78
2022-08-04T15:47:16.727Z,3.00
2022-08-04T15:52:13.624Z,6.07
2022-08-04T15:57:08.248Z,3.90
2022-08-04T16:02:32.121Z,4.38
2022-08-04T16:08:06.020Z,5.00
2022-08-04T16:13:01.047Z,3.95
2022-08-04T16:17:55.541Z,3.72
2022-08-04T16:22:51.956Z,3.60
2022-08-04T16:27:46.070Z,4.05
2022-08-04T16:32:45.689Z,2.97
2022-08-04T16:37:43.470Z,2.05
2022-08-04T16:42:37.952Z,4.28
2022-08-04T16:47:49.877Z,7.80
2022-08-04T16:52:47.959Z,6.18
2022-08-04T16:57:41.650Z,2.17
2022-08-04T17:02:35.590Z,3.95
2022-08-04T17:07:29.751Z,2.50
2022-08-04T17:12:29.734Z,2.05
2022-08-04T17:17:24.086Z,2.90
2022-08-04T17:22:23.461Z,5.57
2022-08-04T17:28:20.374Z,8.48
2022-08-04T17:32:33.685Z,3.03
2022-08-04T17:37:39.801Z,4.32
2022-08-04T17:42:38.869Z,4.50
2022-08-04T17:47:38.166Z,2.03
2022-08-04T17:52:45.117Z,2.15
2022-08-04T17:57:39.972Z,3.10
2022-08-04T18:02:34.820Z,8.02
2022-08-04T18:08:42.792Z,5.78
2022-08-04T18:12:54.134Z,3.38
2022-08-04T18:18:22.216Z,6.65
2022-08-04T18:23:04.024Z,4.50
2022-08-04T18:27:59.000Z,6.22
2022-08-04T18:33:24.306Z,4.57
2022-08-04T18:38:22.328Z,4.90
2022-08-04T18:43:17.530Z,5.80
2022-08-04T18:48:23.325Z,4.75
2022-08-04T18:58:45.135Z,6.03
2022-08-04T19:03:40.090Z,3.90
2022-08-04T19:08:42.552Z,6.70
2022-08-04T19:13:39.672Z,7.57
2022-08-04T19:18:36.514Z,4.60
2022-08-04T19:24:29.106Z,5.35
2022-08-04T19:28:47.383Z,2.40
2022-08-04T19:33:59.354Z,9.90
2022-08-04T19:38:56.434Z,5.88
2022-08-04T19:43:50.652Z,3.30
2022-08-04T19:48:44.859Z,4.32
2022-08-04T19:53:59.216Z,5.38
2022-08-04T19:58:58.271Z,4.35
2022-08-04T20:04:08.349Z,5.05
2022-08-04T20:14:18.102Z,3.42
2022-08-04T20:19:14.145Z,3.83
2022-08-04T20:24:36.565Z,8.15
2022-08-04T20:29:37.071Z,5.78
2022-08-04T20:34:35.436Z,4.85
2022-08-04T20:39:30.220Z,6.85
2022-08-04T20:44:24.948Z,5.40
2022-08-04T20:49:19.736Z,4.13
2022-08-04T20:54:16.447Z,8.25
2022-08-04T20:59:11.350Z,5.65
2022-08-04T21:04:29.688Z,7.20
2022-08-04T21:09:37.403Z,4.65
2022-08-04T21:14:36.792Z,7.07
2022-08-04T21:19:32.181Z,6.15
2022-08-04T21:24:30.900Z,8.07
2022-08-04T21:29:46.202Z,4.07
2022-08-04T21:34:40.186Z,6.47
2022-08-04T21:39:50.232Z,5.28
2022-08-04T21:44:48.789Z,7.25
2022-08-04T21:49:56.766Z,6.80
2022-08-04T21:54:54.469Z,7.32
2022-08-04T21:59:49.205Z,6.30
2022-08-04T22:04:44.665Z,7.90
2022-08-04T22:09:41.575Z,5.72
2022-08-04T22:14:39.509Z,6.47
2022-08-04T22:19:40.282Z,7.22
2022-08-04T22:24:47.162Z,6.95
2022-08-04T22:29:43.170Z,10.88
2022-08-04T22:34:45.753Z,7.32
2022-08-04T22:39:56.110Z,7.43
2022-08-04T22:44:50.260Z,5.70
2022-08-04T22:49:52.407Z,6.85
2022-08-04T22:54:55.701Z,3.90
2022-08-04T22:59:49.400Z,5.22
2022-08-04T23:04:44.378Z,9.40
2022-08-04T23:09:50.333Z,4.03
2022-08-04T23:14:46.320Z,3.90
2022-08-04T23:19:41.236Z,3.83
2022-08-04T23:24:35.798Z,4.53
2022-08-04T23:29:52.680Z,4.47
2022-08-04T23:34:45.235Z,8.55
2022-08-04T23:40:03.735Z,6.93
2022-08-04T23:44:51.992Z,5.43
2022-08-04T23:49:47.779Z,6.47
2022-08-04T23:54:41.718Z,6.60
2022-08-04T23:59:52.587Z,6.18
